createdAt,value
2022-10-21T00:02:14.456Z,6.95
2022-10-21T00:04:42.087Z,7.40
2022-10-21T00:07:09.395Z,7.28
2022-10-21T00:09:36.698Z,7.80
2022-10-21T00:12:04.273Z,7.50
2022-10-21T00:14:31.624Z,8.15
2022-10-21T00:16:59.236Z,7.87
2022-10-21T00:19:26.821Z,7.80
2022-10-21T00:21:54.147Z,8.05
2022-10-21T00:24:21.547Z,8.00
2022-10-21T00:26:49.970Z,8.45
2022-10-21T00:29:17.300Z,7.75
2022-10-21T00:31:44.635Z,8.98
2022-10-21T00:34:12.235Z,7.87
2022-10-21T00:36:39.593Z,7.87
2022-10-21T00:39:06.880Z,7.35
2022-10-21T00:41:34.515Z,7.55
2022-10-21T00:44:02.699Z,8.30
2022-10-21T00:46:35.939Z,7.32
2022-10-21T00:49:13.007Z,7.60
2022-10-21T00:51:40.319Z,7.30
2022-10-21T00:54:07.913Z,6.37
2022-10-21T00:56:35.319Z,7.43
2022-10-21T00:59:03.677Z,6.78
2022-10-21T01:01:31.394Z,7.82
2022-10-21T01:03:58.809Z,5.90
2022-10-21T01:06:26.359Z,6.37
2022-10-21T01:08:54.776Z,6.80
2022-10-21T01:11:22.612Z,7.12
2022-10-21T01:14:22.198Z,6.22
2022-10-21T01:17:20.884Z,6.60
2022-10-21T01:20:18.619Z,7.18
2022-10-21T01:23:07.288Z,6.85
2022-10-21T01:26:12.182Z,7.03
2022-10-21T01:28:55.629Z,6.65
2022-10-21T01:31:47.903Z,6.60
2022-10-21T01:34:49.911Z,6.68
2022-10-21T01:37:22.843Z,7.60
2022-10-21T01:39:54.090Z,7.43
2022-10-21T01:42:30.368Z,6.40
2022-10-21T01:45:10.281Z,6.82
2022-10-21T01:47:40.005Z,6.60
2022-10-21T01:50:16.812Z,7.82
2022-10-21T01:52:44.966Z,6.95
2022-10-21T01:55:14.270Z,6.27
2022-10-21T01:57:43.452Z,7.25
2022-10-21T02:00:11.109Z,6.60
2022-10-21T02:02:40.495Z,6.10
2022-10-21T02:05:11.028Z,6.40
2022-10-21T02:07:38.332Z,8.20
2022-10-21T02:10:05.985Z,5.97
2022-10-21T02:12:33.859Z,6.18
2022-10-21T02:15:01.183Z,6.37
2022-10-21T02:17:28.497Z,6.78
2022-10-21T02:19:57.440Z,5.90
2022-10-21T02:22:24.744Z,5.95
2022-10-21T02:24:54.742Z,6.37
2022-10-21T02:27:22.480Z,5.87
2022-10-21T02:29:50.909Z,6.43
2022-10-21T02:32:57.237Z,6.70
2022-10-21T02:35:46.342Z,5.60
2022-10-21T02:38:34.106Z,7.10
2022-10-21T02:41:02.868Z,5.90
2022-10-21T02:43:41.611Z,6.03
2022-10-21T02:46:10.778Z,6.10
2022-10-21T02:48:38.700Z,6.55
2022-10-21T02:51:07.038Z,6.53
2022-10-21T02:53:34.704Z,6.00
2022-10-21T02:56:02.048Z,6.43
2022-10-21T02:58:29.368Z,5.70
2022-10-21T03:00:57.046Z,5.78
2022-10-21T03:03:24.520Z,6.30
2022-10-21T03:05:51.860Z,5.80
2022-10-21T03:08:19.440Z,5.57
2022-10-21T03:10:52.966Z,6.53
2022-10-21T03:13:22.165Z,6.17
2022-10-21T03:15:50.072Z,7.97
2022-10-21T03:18:17.472Z,6.90
2022-10-21T03:20:45.218Z,5.47
2022-10-21T03:23:12.590Z,7.57
2022-10-21T03:25:39.886Z,7.90
2022-10-21T03:28:07.461Z,8.07
2022-10-21T03:30:34.801Z,6.80
2022-10-21T03:33:02.113Z,7.95
2022-10-21T03:35:29.686Z,5.50
2022-10-21T03:40:30.342Z,6.87
2022-10-21T03:42:58.297Z,8.77
2022-10-21T03:45:26.132Z,8.37
2022-10-21T03:47:53.769Z,7.45
2022-10-21T03:50:25.970Z,7.20
2022-10-21T03:52:54.389Z,6.50
2022-10-21T03:55:24.171Z,6.82
2022-10-21T03:57:52.105Z,6.80
2022-10-21T04:00:19.838Z,6.60
2022-10-21T04:02:47.424Z,6.10
2022-10-21T04:05:15.092Z,6.75
2022-10-21T04:07:42.441Z,6.90
2022-10-21T04:10:10.440Z,6.72
2022-10-21T04:12:38.214Z,6.82
2022-10-21T04:15:06.172Z,5.87
2022-10-21T04:17:33.759Z,6.47
2022-10-21T04:20:01.076Z,5.70
2022-10-21T04:22:28.420Z,7.77
2022-10-21T04:24:58.593Z,6.77
2022-10-21T04:27:28.213Z,6.30
2022-10-21T04:29:55.805Z,5.93
2022-10-21T04:32:23.096Z,6.93
2022-10-21T04:34:50.407Z,5.93
2022-10-21T04:37:18.008Z,5.85
2022-10-21T04:39:45.406Z,7.50
2022-10-21T04:42:12.711Z,6.15
2022-10-21T04:44:40.306Z,6.90
2022-10-21T04:47:07.640Z,7.60
2022-10-21T04:49:34.978Z,6.78
2022-10-21T04:52:02.545Z,7.57
2022-10-21T04:54:29.897Z,7.78
2022-10-21T04:56:57.209Z,6.90
2022-10-21T04:59:24.828Z,7.40
2022-10-21T05:01:52.383Z,6.80
2022-10-21T05:04:19.822Z,7.93
2022-10-21T05:06:47.393Z,8.55
2022-10-21T05:09:14.866Z,7.67
2022-10-21T05:11:42.219Z,7.15
2022-10-21T05:14:09.835Z,7.00
2022-10-21T05:16:37.170Z,6.72
2022-10-21T05:19:04.499Z,8.38
2022-10-21T05:21:32.127Z,8.05
2022-10-21T05:23:59.490Z,7.70
2022-10-21T05:26:28.871Z,7.10
2022-10-21T05:28:57.596Z,7.60
2022-10-21T05:31:25.332Z,8.90
2022-10-21T05:33:52.690Z,7.87
2022-10-21T05:36:23.247Z,7.80
2022-10-21T05:38:51.821Z,7.87
2022-10-21T05:41:19.540Z,7.32
2022-10-21T05:43:47.109Z,7.90
2022-10-21T05:46:14.505Z,9.95
2022-10-21T05:48:41.878Z,6.82
2022-10-21T05:51:09.559Z,6.85
2022-10-21T05:53:36.912Z,7.37
2022-10-21T05:56:06.982Z,7.05
2022-10-21T05:58:35.331Z,7.22
2022-10-21T06:01:02.720Z,6.97
2022-10-21T06:03:31.626Z,8.02
2022-10-21T06:05:59.768Z,7.68
2022-10-21T06:08:27.706Z,7.18
2022-10-21T06:11:05.729Z,7.07
2022-10-21T06:13:33.145Z,8.52
2022-10-21T06:16:00.786Z,8.05
2022-10-21T06:18:28.143Z,7.65
2022-10-21T06:20:55.514Z,7.03
2022-10-21T06:23:23.145Z,8.35
2022-10-21T06:26:02.490Z,7.93
2022-10-21T06:28:31.029Z,8.90
2022-10-21T06:30:58.519Z,8.95
2022-10-21T06:33:27.280Z,8.00
2022-10-21T06:35:55.542Z,9.75
2022-10-21T06:38:23.447Z,9.23
2022-10-21T06:40:50.788Z,8.50
2022-10-21T06:43:18.568Z,10.30
2022-10-21T06:45:45.980Z,9.25
2022-10-21T06:48:13.839Z,9.73
2022-10-21T06:50:41.474Z,8.80
2022-10-21T06:53:08.840Z,8.55
2022-10-21T06:55:36.185Z,8.77
2022-10-21T06:58:04.056Z,8.50
2022-10-21T07:00:31.409Z,9.07
2022-10-21T07:02:58.862Z,9.77
2022-10-21T07:05:26.474Z,8.40
2022-10-21T07:07:53.884Z,8.90
2022-10-21T07:10:21.213Z,9.13
2022-10-21T07:12:48.865Z,8.43
2022-10-21T07:15:16.213Z,9.98
2022-10-21T07:17:43.549Z,9.95
2022-10-21T07:20:11.152Z,7.22
2022-10-21T07:22:38.478Z,6.72
2022-10-21T07:25:06.298Z,6.82
2022-10-21T07:27:33.930Z,7.03
2022-10-21T07:30:01.326Z,6.50
2022-10-21T07:32:28.675Z,5.57
2022-10-21T07:34:56.295Z,6.35
2022-10-21T07:37:23.609Z,4.87
2022-10-21T07:39:50.924Z,5.28
2022-10-21T07:42:18.494Z,5.75
2022-10-21T07:44:45.857Z,5.12
2022-10-21T07:47:13.216Z,6.10
2022-10-21T07:49:40.810Z,5.60
2022-10-21T07:52:08.208Z,5.12
2022-10-21T07:54:35.656Z,6.12
2022-10-21T07:57:03.287Z,5.28
2022-10-21T07:59:30.605Z,4.90
2022-10-21T08:01:57.964Z,4.68
2022-10-21T08:04:29.739Z,5.10
2022-10-21T08:06:57.312Z,5.70
2022-10-21T08:09:26.277Z,5.30
2022-10-21T08:11:53.874Z,5.25
2022-10-21T08:14:21.199Z,5.75
2022-10-21T08:16:53.024Z,5.30
2022-10-21T08:19:24.025Z,5.35
2022-10-21T08:21:51.318Z,5.95
2022-10-21T08:24:18.672Z,5.57
2022-10-21T08:26:46.270Z,5.35
2022-10-21T08:29:13.581Z,5.37
2022-10-21T08:31:40.993Z,5.82
2022-10-21T08:34:08.850Z,5.60
2022-10-21T08:36:36.629Z,5.25
2022-10-21T08:39:04.070Z,5.90
2022-10-21T08:41:31.538Z,4.93
2022-10-21T08:44:17.543Z,5.10
2022-10-21T08:46:47.694Z,4.22
2022-10-21T08:49:20.540Z,5.12
2022-10-21T08:51:54.255Z,5.07
2022-10-21T08:54:24.650Z,5.32
2022-10-21T08:56:52.267Z,5.60
2022-10-21T08:59:21.699Z,5.87
2022-10-21T09:01:55.394Z,7.18
2022-10-21T09:04:44.188Z,5.95
2022-10-21T09:07:38.508Z,5.95
2022-10-21T09:10:28.188Z,4.68
2022-10-21T09:13:12.966Z,5.57
2022-10-21T09:15:51.583Z,5.28
2022-10-21T09:18:34.957Z,4.55
2022-10-21T09:21:23.516Z,5.05
2022-10-21T09:24:11.456Z,4.70
2022-10-21T09:26:41.677Z,3.92
2022-10-21T09:29:12.287Z,4.20
2022-10-21T09:31:39.927Z,4.60
2022-10-21T09:34:07.332Z,5.03
2022-10-21T09:36:36.469Z,5.30
2022-10-21T09:39:12.178Z,5.43
2022-10-21T09:41:41.549Z,4.87
2022-10-21T09:44:17.608Z,4.53
2022-10-21T09:46:45.826Z,5.25
2022-10-21T09:50:06.533Z,4.75
2022-10-21T09:52:21.158Z,4.15
2022-10-21T09:54:48.809Z,4.00
2022-10-21T09:57:36.297Z,4.28
2022-10-21T10:00:06.028Z,4.15
2022-10-21T10:02:39.837Z,4.60
2022-10-21T10:05:36.923Z,4.95
2022-10-21T10:08:29.246Z,4.70
2022-10-21T10:11:08.606Z,4.43
2022-10-21T10:13:36.830Z,4.80
2022-10-21T10:16:13.973Z,5.68
2022-10-21T10:18:42.043Z,4.25
2022-10-21T10:21:16.579Z,5.35
2022-10-21T10:23:45.657Z,4.12
2022-10-21T10:26:27.832Z,4.37
2022-10-21T10:28:58.365Z,4.47
2022-10-21T10:31:31.526Z,4.10
2022-10-21T10:34:01.130Z,4.25
2022-10-21T10:36:36.886Z,4.12
2022-10-21T10:39:07.641Z,4.57
2022-10-21T10:41:37.961Z,4.35
2022-10-21T10:44:18.671Z,4.43
2022-10-21T10:46:49.261Z,4.22
2022-10-21T10:49:23.989Z,4.12
2022-10-21T10:52:10.569Z,4.00
2022-10-21T10:57:06.425Z,4.40
2022-10-21T11:00:04.452Z,4.87
2022-10-21T11:02:40.960Z,4.70
2022-10-21T11:05:23.603Z,5.30
2022-10-21T11:07:55.516Z,4.68
2022-10-21T11:10:38.002Z,5.05
2022-10-21T11:13:10.497Z,5.03
2022-10-21T11:16:12.372Z,4.35
2022-10-21T11:18:49.436Z,5.28
2022-10-21T11:21:42.582Z,5.07
2022-10-21T11:24:31.773Z,4.82
2022-10-21T11:27:13.471Z,5.68
2022-10-21T11:30:01.103Z,4.87
2022-10-21T11:33:00.871Z,4.28
2022-10-21T11:35:57.397Z,4.55
2022-10-21T11:38:46.541Z,4.55
2022-10-21T11:41:25.671Z,3.97
2022-10-21T11:44:10.879Z,3.58
2022-10-21T11:46:40.308Z,4.62
2022-10-21T11:49:29.261Z,3.40
2022-10-21T11:51:59.702Z,3.37
2022-10-21T11:55:08.368Z,3.62
2022-10-21T11:58:08.492Z,3.42
2022-10-21T12:00:52.280Z,4.30
2022-10-21T12:03:48.961Z,3.80
2022-10-21T12:06:28.172Z,3.37
2022-10-21T12:09:03.087Z,3.62
2022-10-21T12:11:39.010Z,2.75
2022-10-21T12:14:30.892Z,2.80
2022-10-21T12:16:59.862Z,3.47
2022-10-21T12:19:27.433Z,2.97
2022-10-21T12:21:54.780Z,2.92
2022-10-21T12:24:41.921Z,3.62
2022-10-21T12:27:24.573Z,2.95
2022-10-21T12:30:23.431Z,3.12
2022-10-21T12:33:18.225Z,3.05
2022-10-21T12:35:50.439Z,3.42
2022-10-21T12:38:26.076Z,3.30
2022-10-21T12:41:26.867Z,3.65
2022-10-21T12:44:03.369Z,3.42
2022-10-21T12:46:40.030Z,3.65
2022-10-21T12:49:24.206Z,3.78
2022-10-21T12:51:54.564Z,3.83
2022-10-21T12:54:26.702Z,3.97
2022-10-21T12:57:08.179Z,4.05
2022-10-21T12:59:38.005Z,3.97
2022-10-21T13:02:05.150Z,3.60
2022-10-21T13:04:32.351Z,4.12
2022-10-21T13:07:27.830Z,4.32
2022-10-21T13:09:55.020Z,4.40
2022-10-21T13:12:25.582Z,4.40
2022-10-21T13:14:56.657Z,4.28
2022-10-21T13:17:28.491Z,4.18
2022-10-21T13:20:14.567Z,4.25
2022-10-21T13:25:16.323Z,4.55
2022-10-21T13:27:51.678Z,4.60
2022-10-21T13:30:35.997Z,4.35
2022-10-21T13:33:07.328Z,4.55
2022-10-21T13:35:48.132Z,4.43
2022-10-21T13:38:27.210Z,4.70
2022-10-21T13:41:04.629Z,6.03
2022-10-21T13:43:32.067Z,4.22
2022-10-21T13:46:23.443Z,4.72
2022-10-21T13:48:51.058Z,4.40
2022-10-21T13:51:18.199Z,4.93
2022-10-21T13:53:45.978Z,4.57
2022-10-21T13:56:30.082Z,4.32
2022-10-21T13:58:57.443Z,4.62
2022-10-21T14:01:27.254Z,5.18
2022-10-21T14:03:56.394Z,4.68
2022-10-21T14:06:32.368Z,4.85
2022-10-21T14:09:00.403Z,4.00
2022-10-21T14:11:33.377Z,4.47
2022-10-21T14:14:06.606Z,4.35
2022-10-21T14:16:35.851Z,4.12
2022-10-21T14:19:06.760Z,4.78
2022-10-21T14:21:36.688Z,4.68
2022-10-21T14:24:04.247Z,4.65
2022-10-21T14:26:32.448Z,5.22
2022-10-21T14:29:00.817Z,5.15
2022-10-21T14:31:28.184Z,4.75
2022-10-21T14:33:55.521Z,5.03
2022-10-21T14:36:25.069Z,4.90
2022-10-21T14:38:53.971Z,4.75
2022-10-21T14:41:24.585Z,4.82
2022-10-21T14:43:52.992Z,5.57
2022-10-21T14:46:20.385Z,4.97
2022-10-21T14:48:48.822Z,4.28
2022-10-21T14:51:21.169Z,4.45
2022-10-21T14:53:58.498Z,4.53
2022-10-21T14:56:33.800Z,5.28
2022-10-21T14:59:03.598Z,5.37
2022-10-21T15:01:31.187Z,5.80
2022-10-21T15:03:59.526Z,5.40
2022-10-21T15:06:28.796Z,4.97
2022-10-21T15:08:56.430Z,4.95
2022-10-21T15:11:26.544Z,5.07
2022-10-21T15:14:06.306Z,4.95
2022-10-21T15:19:07.608Z,4.85
2022-10-21T15:21:45.454Z,4.80
2022-10-21T15:24:46.245Z,5.32
2022-10-21T15:27:26.134Z,4.93
2022-10-21T15:29:53.888Z,5.55
2022-10-21T15:32:25.643Z,5.30
2022-10-21T15:34:54.289Z,7.53
2022-10-21T15:37:21.904Z,5.65
2022-10-21T15:39:49.260Z,6.12
2022-10-21T15:42:18.156Z,4.75
2022-10-21T15:44:49.522Z,6.20
2022-10-21T15:47:18.592Z,5.62
2022-10-21T15:49:46.730Z,7.03
2022-10-21T15:52:14.089Z,4.60
2022-10-21T15:54:41.718Z,5.72
2022-10-21T15:57:19.856Z,5.22
2022-10-21T15:59:47.548Z,5.37
2022-10-21T16:02:17.084Z,5.35
2022-10-21T16:04:45.277Z,5.80
2022-10-21T16:07:34.170Z,4.82
2022-10-21T16:10:03.638Z,4.82
2022-10-21T16:12:31.223Z,5.40
2022-10-21T16:14:58.550Z,5.75
2022-10-21T16:17:28.926Z,5.65
2022-10-21T16:19:56.250Z,5.30
2022-10-21T16:22:23.584Z,5.70
2022-10-21T16:24:51.217Z,5.32
2022-10-21T16:27:31.336Z,5.75
2022-10-21T16:30:34.723Z,5.28
2022-10-21T16:33:02.033Z,5.62
2022-10-21T16:35:29.634Z,6.22
2022-10-21T16:37:56.984Z,5.72
2022-10-21T16:40:25.875Z,5.95
2022-10-21T16:42:53.631Z,6.28
2022-10-21T16:45:21.856Z,5.75
2022-10-21T16:47:52.557Z,6.12
2022-10-21T16:50:22.909Z,5.50
2022-10-21T16:52:50.355Z,6.32
2022-10-21T16:55:17.812Z,5.97
2022-10-21T16:57:45.467Z,5.22
2022-10-21T17:00:13.583Z,5.35
2022-10-21T17:02:40.919Z,5.70
2022-10-21T17:05:08.879Z,5.70
2022-10-21T17:07:36.476Z,6.40
2022-10-21T17:10:04.311Z,5.85
2022-10-21T17:12:33.364Z,6.10
2022-10-21T17:15:00.762Z,5.53
2022-10-21T17:17:28.182Z,5.82
2022-10-21T17:19:55.796Z,5.57
2022-10-21T17:22:23.161Z,6.03
2022-10-21T17:24:50.514Z,5.78
2022-10-21T17:27:19.651Z,6.25
2022-10-21T17:29:47.225Z,5.55
2022-10-21T17:32:14.583Z,6.32
2022-10-21T17:34:42.192Z,6.82
2022-10-21T17:37:10.181Z,6.85
2022-10-21T17:39:37.538Z,6.90
2022-10-21T17:42:05.145Z,6.07
2022-10-21T17:44:32.576Z,6.25
2022-10-21T17:46:59.906Z,6.15
2022-10-21T17:49:27.573Z,6.05
2022-10-21T17:51:54.903Z,6.70
2022-10-21T17:54:25.997Z,6.72
2022-10-21T17:56:57.011Z,6.78
2022-10-21T17:59:24.635Z,5.72
2022-10-21T18:01:51.974Z,6.32
2022-10-21T18:04:20.569Z,6.43
2022-10-21T18:06:47.966Z,5.93
2022-10-21T18:09:15.425Z,7.35
2022-10-21T18:11:43.106Z,7.28
2022-10-21T18:14:10.406Z,6.93
2022-10-21T18:16:37.861Z,5.55
2022-10-21T18:19:05.459Z,5.90
2022-10-21T18:21:32.746Z,6.65
2022-10-21T18:24:00.093Z,6.60
2022-10-21T18:26:29.397Z,6.72
2022-10-21T18:28:58.311Z,6.20
2022-10-21T18:31:28.138Z,6.53
2022-10-21T18:33:55.929Z,7.55
2022-10-21T18:36:23.377Z,6.32
2022-10-21T18:38:50.672Z,6.60
2022-10-21T18:41:20.904Z,7.40
2022-10-21T18:43:52.575Z,7.55
2022-10-21T18:46:20.281Z,6.50
2022-10-21T18:48:47.828Z,6.32
2022-10-21T18:51:19.106Z,7.00
2022-10-21T18:53:49.810Z,6.50
2022-10-21T18:56:20.126Z,7.87
2022-10-21T18:58:47.737Z,6.93
2022-10-21T19:01:15.285Z,6.35
2022-10-21T19:03:42.909Z,7.55
2022-10-21T19:06:33.896Z,7.40
2022-10-21T19:09:01.466Z,7.20
2022-10-21T19:11:29.185Z,6.60
2022-10-21T19:13:56.549Z,7.45
2022-10-21T19:16:23.940Z,7.10
2022-10-21T19:18:51.555Z,7.65
2022-10-21T19:21:19.660Z,7.80
2022-10-21T19:23:46.979Z,7.25
2022-10-21T19:26:14.922Z,7.22
2022-10-21T19:28:42.344Z,7.68
2022-10-21T19:31:11.516Z,6.95
2022-10-21T19:33:39.201Z,7.55
2022-10-21T19:36:06.934Z,6.60
2022-10-21T19:38:49.759Z,7.25
2022-10-21T19:41:21.192Z,7.20
2022-10-21T19:43:48.824Z,6.68
2022-10-21T19:46:21.042Z,6.40
2022-10-21T19:48:51.321Z,6.60
2022-10-21T19:51:19.685Z,6.43
2022-10-21T19:53:47.264Z,7.82
2022-10-21T19:56:14.938Z,7.20
2022-10-21T19:58:47.006Z,7.43
2022-10-21T20:01:24.891Z,6.57
2022-10-21T20:03:52.717Z,7.05
2022-10-21T20:06:27.530Z,7.30
2022-10-21T20:08:56.557Z,6.32
2022-10-21T20:11:24.239Z,7.03
2022-10-21T20:13:51.643Z,7.60
2022-10-21T20:16:22.167Z,6.40
2022-10-21T20:18:49.634Z,7.57
2022-10-21T20:21:16.939Z,6.03
2022-10-21T20:23:44.506Z,6.85
2022-10-21T20:26:11.866Z,7.93
2022-10-21T20:28:39.253Z,7.75
2022-10-21T20:31:07.737Z,7.62
2022-10-21T20:33:36.383Z,8.05
2022-10-21T20:36:09.001Z,7.10
2022-10-21T20:38:36.615Z,8.35
2022-10-21T20:41:06.879Z,6.70
2022-10-21T20:43:35.214Z,8.77
2022-10-21T20:46:03.596Z,8.95
2022-10-21T20:48:31.531Z,7.95
2022-10-21T20:51:15.654Z,8.48
2022-10-21T20:53:50.769Z,9.75
2022-10-21T20:56:18.208Z,8.20
2022-10-21T20:58:45.780Z,9.23
2022-10-21T21:01:17.937Z,9.52
2022-10-21T21:03:46.248Z,9.30
2022-10-21T21:06:13.609Z,8.15
2022-10-21T21:08:48.820Z,9.88
2022-10-21T21:11:21.260Z,7.95
2022-10-21T21:13:48.665Z,8.48
2022-10-21T21:16:20.896Z,7.15
2022-10-21T21:18:57.901Z,9.15
2022-10-21T21:21:26.805Z,7.43
2022-10-21T21:23:54.402Z,9.38
2022-10-21T21:26:26.084Z,7.70
2022-10-21T21:28:53.747Z,7.40
2022-10-21T21:31:22.354Z,10.32
2022-10-21T21:33:49.853Z,10.13
2022-10-21T21:36:18.167Z,10.38
2022-10-21T21:38:45.651Z,9.40
2022-10-21T21:41:13.397Z,11.68
2022-10-21T21:43:41.590Z,10.40
2022-10-21T21:46:08.955Z,11.65
2022-10-21T21:48:36.265Z,10.93
2022-10-21T21:51:05.974Z,10.68
2022-10-21T21:53:33.330Z,10.82
2022-10-21T21:56:03.348Z,9.05
2022-10-21T21:58:31.169Z,10.23
2022-10-21T22:00:58.501Z,9.95
2022-10-21T22:03:26.185Z,11.70
2022-10-21T22:05:53.556Z,11.27
2022-10-21T22:08:20.916Z,11.73
2022-10-21T22:10:48.495Z,12.25
2022-10-21T22:13:15.808Z,11.50
2022-10-21T22:15:48.075Z,10.65
2022-10-21T22:18:16.264Z,10.98
2022-10-21T22:20:43.594Z,11.93
2022-10-21T22:23:10.929Z,11.80
2022-10-21T22:25:38.513Z,14.15
2022-10-21T22:28:05.878Z,12.50
2022-10-21T22:30:33.216Z,11.70
2022-10-21T22:33:00.830Z,11.77
2022-10-21T22:35:28.288Z,12.02
2022-10-21T22:37:55.629Z,10.40
2022-10-21T22:40:23.255Z,11.07
2022-10-21T22:42:50.590Z,10.38
2022-10-21T22:45:17.941Z,11.05
2022-10-21T22:47:45.518Z,9.63
2022-10-21T22:50:12.850Z,10.88
2022-10-21T22:52:41.364Z,11.63
2022-10-21T22:55:10.159Z,11.30
2022-10-21T22:57:37.545Z,10.07
2022-10-21T23:00:05.298Z,11.18
2022-10-21T23:02:32.905Z,10.52
2022-10-21T23:05:00.230Z,10.07
2022-10-21T23:07:27.705Z,10.13
2022-10-21T23:09:55.333Z,9.40
2022-10-21T23:12:22.707Z,10.65
2022-10-21T23:14:50.017Z,10.60
2022-10-21T23:17:17.598Z,12.10
2022-10-21T23:19:44.946Z,9.70
2022-10-21T23:22:12.306Z,10.27
2022-10-21T23:24:39.928Z,9.68
2022-10-21T23:27:07.243Z,9.63
2022-10-21T23:29:34.554Z,9.60
2022-10-21T23:32:02.116Z,9.93
2022-10-21T23:34:30.474Z,10.18
2022-10-21T23:36:57.785Z,9.85
2022-10-21T23:39:25.420Z,9.00
2022-10-21T23:41:52.730Z,9.20
2022-10-21T23:44:20.142Z,9.63
2022-10-21T23:46:47.740Z,8.27
2022-10-21T23:49:15.109Z,9.13
2022-10-21T23:51:42.462Z,9.02
2022-10-21T23:54:10.206Z,10.48
2022-10-21T23:56:37.546Z,9.90
2022-10-21T23:59:06.909Z,8.48
